Time;durP1;ratioP1;P1;durP2;ratioP2;P2;SDS_P1;SDS_P2;PMS_P1;PMS_P2;Temp;Humidity;BMP_temperature;BMP_pressure;BME280_temperature;BME280_humidity;BME280_pressure;Samples;Min_cycle;Max_cycle;Signal;HPM_P1;HPM_P2
2022/12/16 00:01:17;;;;;;;9.45;7.28;;;5.30;99.90;;;;;;5015584;28;20026;-88
2022/12/16 00:03:48;;;;;;;15.75;11.20;;;5.40;99.90;;;;;;5015419;28;20026;-88
2022/12/16 00:06:14;;;;;;;10.93;8.20;;;5.40;99.90;;;;;;5015391;28;20546;-88
2022/12/16 00:08:40;;;;;;;9.23;7.82;;;5.50;99.90;;;;;;4998135;28;20129;-88
2022/12/16 00:11:08;;;;;;;9.57;7.95;;;5.20;99.90;;;;;;5029315;28;20064;-88
2022/12/16 00:13:36;;;;;;;26.45;17.30;;;5.00;99.90;;;;;;5035233;28;20022;-88
2022/12/16 00:16:06;;;;;;;46.72;24.20;;;4.90;99.90;;;;;;5034848;28;20409;-88
2022/12/16 00:18:32;;;;;;;48.50;26.75;;;5.00;99.90;;;;;;5034838;28;20041;-88
2022/12/16 00:20:58;;;;;;;47.13;25.75;;;5.00;99.90;;;;;;5034979;28;20021;-88
2022/12/16 00:23:24;;;;;;;16.05;11.48;;;5.00;99.90;;;;;;5034587;28;20064;-88
2022/12/16 00:25:50;;;;;;;17.38;11.98;;;5.00;99.90;;;;;;5034590;28;20025;-88
2022/12/16 00:28:17;;;;;;;17.45;12.00;;;5.10;99.90;;;;;;5034582;28;20034;-88
2022/12/16 00:30:43;;;;;;;40.53;23.10;;;5.00;99.90;;;;;;5016418;28;20018;-88
2022/12/16 00:33:10;;;;;;;22.08;13.80;;;5.40;99.90;;;;;;5034432;28;20029;-88
2022/12/16 00:35:35;;;;;;;14.88;10.98;;;5.40;99.90;;;;;;5034632;28;20025;-88
2022/12/16 00:38:01;;;;;;;20.50;11.95;;;5.30;99.90;;;;;;5033939;28;20033;-88
2022/12/16 00:40:27;;;;;;;37.03;21.00;;;5.00;99.90;;;;;;5034177;28;20474;-89
2022/12/16 00:42:52;;;;;;;21.42;13.70;;;5.00;99.90;;;;;;5034192;28;20493;-88
2022/12/16 00:45:18;;;;;;;24.85;16.08;;;5.30;99.90;;;;;;5034524;28;20116;-88
2022/12/16 00:47:44;;;;;;;23.50;15.45;;;5.00;99.90;;;;;;5033772;28;20026;-88
2022/12/16 00:50:10;;;;;;;26.00;16.05;;;5.00;99.90;;;;;;5033954;28;20029;-88
2022/12/16 00:52:36;;;;;;;45.35;26.13;;;5.40;99.90;;;;;;5034257;28;20456;-88
2022/12/16 00:55:02;;;;;;;15.75;12.05;;;5.40;99.90;;;;;;5033480;28;20030;-88
2022/12/16 00:57:27;;;;;;;126.57;65.45;;;4.90;99.90;;;;;;5031270;28;20684;-88
2022/12/16 00:59:53;;;;;;;13.55;10.63;;;5.00;99.90;;;;;;5031085;28;20029;-88
2022/12/16 01:02:18;;;;;;;75.65;41.42;;;5.10;99.90;;;;;;5034129;28;20033;-87
2022/12/16 01:04:44;;;;;;;59.42;34.25;;;5.40;99.90;;;;;;5033000;28;20038;-88
2022/12/16 01:07:10;;;;;;;12.65;9.60;;;5.40;99.90;;;;;;5014140;28;20036;-88
2022/12/16 01:09:35;;;;;;;28.33;18.13;;;5.00;99.90;;;;;;5021021;28;20108;-88
2022/12/16 01:12:01;;;;;;;29.75;19.17;;;5.10;99.90;;;;;;5034206;28;20041;-88
2022/12/16 01:14:27;;;;;;;185.32;97.35;;;5.00;99.90;;;;;;5033929;28;20026;-88
2022/12/16 01:16:52;;;;;;;12.93;10.63;;;4.80;99.90;;;;;;5033920;28;20107;-88
2022/12/16 01:19:18;;;;;;;12.05;9.00;;;4.90;99.90;;;;;;5034156;28;20394;-88
2022/12/16 01:21:44;;;;;;;22.83;15.05;;;5.00;99.90;;;;;;5026804;28;20042;-87
2022/12/16 01:24:11;;;;;;;24.55;15.95;;;5.30;99.90;;;;;;5013579;28;20022;-88
2022/12/16 01:26:38;;;;;;;56.55;32.33;;;4.90;99.90;;;;;;5013753;28;20432;-87
2022/12/16 01:29:04;;;;;;;51.80;28.73;;;4.80;99.90;;;;;;5014294;28;20022;-88
2022/12/16 01:31:30;;;;;;;13.30;9.95;;;4.80;99.90;;;;;;5013838;28;20037;-88
2022/12/16 01:33:55;;;;;;;50.20;28.80;;;4.80;99.90;;;;;;5023950;28;20497;-88
2022/12/16 01:36:21;;;;;;;13.32;10.05;;;5.20;99.90;;;;;;5033226;28;20791;-88
2022/12/16 01:38:47;;;;;;;13.98;10.60;;;5.20;99.90;;;;;;5033419;28;20087;-88
2022/12/16 01:41:14;;;;;;;14.18;10.55;;;4.90;99.90;;;;;;5033498;28;20022;-88
2022/12/16 01:43:41;;;;;;;30.35;18.77;;;5.10;99.90;;;;;;5033090;28;20025;-88
2022/12/16 01:46:22;;;;;;;12.98;9.90;;;4.80;99.90;;;;;;5033430;28;20056;-88
2022/12/16 01:48:51;;;;;;;23.38;15.73;;;5.00;99.90;;;;;;5033664;28;20052;-88
2022/12/16 01:51:29;;;;;;;11.13;8.48;;;5.00;99.90;;;;;;5032156;28;20061;-88
2022/12/16 01:54:00;;;;;;;9.35;7.43;;;5.00;99.90;;;;;;5032646;28;20033;-88
2022/12/16 01:56:29;;;;;;;12.80;9.65;;;5.00;99.90;;;;;;5015568;28;20032;-88
2022/12/16 01:58:56;;;;;;;65.57;35.88;;;4.90;99.90;;;;;;5010397;28;20022;-88
2022/12/16 02:01:22;;;;;;;34.10;20.83;;;4.90;99.90;;;;;;5013572;28;20029;-88
2022/12/16 02:03:50;;;;;;;23.25;15.13;;;4.80;99.90;;;;;;5013018;28;20025;-88
2022/12/16 02:06:16;;;;;;;23.25;14.73;;;4.80;99.90;;;;;;5013012;28;20584;-88
2022/12/16 02:08:41;;;;;;;11.43;8.85;;;4.90;99.90;;;;;;5013529;28;20113;-88
2022/12/16 02:11:20;;;;;;;10.68;8.65;;;5.10;99.90;;;;;;5017360;28;20493;-88
2022/12/16 02:14:36;;;;;;;9.93;7.57;;;5.30;99.90;;;;;;5014986;28;20123;-88
2022/12/16 02:17:20;;;;;;;27.58;17.42;;;4.80;99.90;;;;;;4933204;29;20075;-88
2022/12/16 02:20:19;;;;;;;35.78;21.90;;;5.00;99.90;;;;;;4933294;29;20156;-88
2022/12/16 02:23:03;;;;;;;12.00;9.30;;;4.70;99.90;;;;;;4933785;29;20028;-88
2022/12/16 02:25:35;;;;;;;15.95;10.95;;;4.70;99.90;;;;;;4933312;29;20035;-88
2022/12/16 02:28:03;;;;;;;12.18;9.25;;;4.70;99.90;;;;;;4932797;29;20043;-87
2022/12/16 02:30:42;;;;;;;12.52;8.75;;;4.70;99.90;;;;;;4933025;29;20039;-88
2022/12/16 02:33:34;;;;;;;15.52;11.32;;;4.60;99.90;;;;;;4933197;28;20522;-87
2022/12/16 02:36:32;;;;;;;16.55;11.30;;;4.70;99.90;;;;;;4932773;29;20024;-87
2022/12/16 02:39:13;;;;;;;19.08;12.57;;;4.80;99.90;;;;;;4932649;29;20039;-88
2022/12/16 02:41:44;;;;;;;24.23;15.75;;;4.60;99.90;;;;;;4932874;29;20107;-87
2022/12/16 02:44:12;;;;;;;15.65;12.13;;;4.60;99.90;;;;;;4933184;29;20099;-88
2022/12/16 02:46:50;;;;;;;15.52;11.02;;;4.70;99.90;;;;;;4932979;29;20027;-88
2022/12/16 02:49:15;;;;;;;27.13;17.90;;;4.60;99.90;;;;;;4932356;29;20039;-87
2022/12/16 02:51:41;;;;;;;17.48;11.77;;;4.30;99.90;;;;;;4942880;28;20043;-87
2022/12/16 02:54:08;;;;;;;21.10;14.07;;;4.40;99.90;;;;;;5032121;28;20389;-88
2022/12/16 02:56:55;;;;;;;18.33;12.02;;;4.40;99.90;;;;;;5013863;28;20111;-87
2022/12/16 02:59:33;;;;;;;20.17;13.85;;;4.40;99.90;;;;;;5031405;28;20041;-87
2022/12/16 03:02:18;;;;;;;28.00;17.45;;;4.40;99.90;;;;;;5030809;28;20392;-88
2022/12/16 03:04:50;;;;;;;35.90;21.75;;;4.30;99.90;;;;;;5013768;28;20033;-88
2022/12/16 03:07:20;;;;;;;43.30;24.58;;;4.30;99.90;;;;;;5031659;28;20455;-88
2022/12/16 03:09:46;;;;;;;41.28;23.67;;;4.30;99.90;;;;;;5031778;28;20075;-87
2022/12/16 03:12:16;;;;;;;40.78;23.58;;;4.50;99.90;;;;;;5031724;28;20124;-88
2022/12/16 03:14:45;;;;;;;63.63;33.72;;;4.60;99.90;;;;;;5031191;28;20423;-88
2022/12/16 03:17:13;;;;;;;40.30;23.63;;;4.20;99.90;;;;;;5031908;28;20521;-88
2022/12/16 03:19:44;;;;;;;54.85;29.08;;;4.20;99.90;;;;;;5031466;28;20029;-87
2022/12/16 03:22:33;;;;;;;66.13;35.60;;;4.10;99.90;;;;;;5031805;28;20041;-88
2022/12/16 03:24:58;;;;;;;36.08;21.85;;;4.50;99.90;;;;;;5031584;28;20048;-88
2022/12/16 03:27:34;;;;;;;36.13;21.52;;;4.50;99.90;;;;;;5013478;28;20502;-88
2022/12/16 03:30:08;;;;;;;41.08;24.00;;;4.60;99.90;;;;;;5012734;28;20029;-88
2022/12/16 03:32:45;;;;;;;37.90;21.60;;;4.30;99.90;;;;;;5030404;28;20044;-88
2022/12/16 03:35:16;;;;;;;47.80;26.60;;;4.20;99.90;;;;;;5019425;28;20045;-88
2022/12/16 03:37:46;;;;;;;52.17;28.48;;;4.10;99.90;;;;;;5031478;28;20041;-88
2022/12/16 03:40:13;;;;;;;49.75;26.80;;;4.70;99.90;;;;;;5031165;28;20025;-88
2022/12/16 03:42:41;;;;;;;46.40;26.55;;;4.20;99.90;;;;;;5031134;28;20409;-88
2022/12/16 03:45:10;;;;;;;50.38;28.30;;;4.20;99.90;;;;;;5031328;28;20501;-88
2022/12/16 03:47:36;;;;;;;85.88;42.67;;;4.20;99.90;;;;;;5031109;28;20036;-88
2022/12/16 03:50:03;;;;;;;94.85;47.45;;;4.40;99.90;;;;;;5031806;28;20028;-88
2022/12/16 03:52:28;;;;;;;42.95;23.40;;;4.20;99.90;;;;;;5031336;28;20037;-88
2022/12/16 03:54:54;;;;;;;39.67;21.08;;;4.50;99.90;;;;;;5031358;28;20033;-88
2022/12/16 03:57:19;;;;;;;38.50;21.52;;;4.10;99.90;;;;;;5030978;28;20057;-88
2022/12/16 03:59:45;;;;;;;39.00;23.10;;;4.40;99.90;;;;;;5031220;28;20108;-88
2022/12/16 04:02:11;;;;;;;44.78;24.00;;;4.60;99.90;;;;;;5030603;28;20034;-88
2022/12/16 04:04:36;;;;;;;45.13;25.48;;;4.00;99.90;;;;;;5031606;28;20545;-88
2022/12/16 04:07:20;;;;;;;44.33;25.85;;;4.20;99.90;;;;;;5031198;28;20061;-88
2022/12/16 04:09:47;;;;;;;44.75;24.60;;;3.80;99.90;;;;;;5031152;28;20022;-88
2022/12/16 04:26:03;;;;;;;37.20;22.77;;;4.30;99.90;;;;;;5015193;28;20280;-88
2022/12/16 04:28:28;;;;;;;41.00;24.38;;;3.90;99.90;;;;;;5014427;28;20033;-87
2022/12/16 04:30:55;;;;;;;37.45;22.13;;;4.50;99.90;;;;;;5014236;28;20041;-88
